Time;durP1;ratioP1;P1;durP2;ratioP2;P2;SDS_P1;SDS_P2;PMS_P1;PMS_P2;Temp;Humidity;BMP_temperature;BMP_pressure;BME280_temperature;BME280_humidity;BME280_pressure;Samples;Min_cycle;Max_cycle;Signal;HPM_P1;HPM_P2
2021/05/22 06:01:42;;;;;;;2.55;1.07;;;;;;;16.10;61.03;99445.80;1713895;78;26187;-58
2021/05/22 06:04:08;;;;;;;1.67;1.25;;;;;;;16.11;60.74;99450.70;1725327;81;25853;-58
2021/05/22 06:06:36;;;;;;;2.02;1.30;;;;;;;16.11;61.03;99447.97;1714005;81;27396;-57
2021/05/22 06:09:05;;;;;;;1.70;0.90;;;;;;;16.09;60.97;99448.89;1702838;82;25786;-58
2021/05/22 06:11:35;;;;;;;4.08;1.10;;;;;;;16.06;60.76;99437.56;1694498;82;25884;-58
2021/05/22 06:14:01;;;;;;;1.12;0.98;;;;;;;16.00;60.55;99436.87;1725431;81;25945;-58
2021/05/22 06:16:34;;;;;;;3.42;0.98;;;;;;;15.91;60.13;99442.59;1718357;81;25695;-58
2021/05/22 06:19:00;;;;;;;1.67;1.27;;;;;;;15.84;60.29;99451.44;1719911;81;27338;-58
2021/05/22 06:21:26;;;;;;;2.72;1.00;;;;;;;15.78;60.31;99447.46;1715839;82;25835;-58
2021/05/22 06:23:53;;;;;;;4.00;1.05;;;;;;;15.83;60.45;99447.71;1719054;81;25644;-58
2021/05/22 06:26:19;;;;;;;2.25;1.00;;;;;;;15.81;60.07;99437.17;1720064;82;25888;-58
2021/05/22 06:28:45;;;;;;;4.17;1.07;;;;;;;15.82;60.41;99451.61;1717158;82;25696;-58
2021/05/22 06:31:12;;;;;;;2.22;0.90;;;;;;;15.80;60.67;99451.16;1717682;81;27327;-59
2021/05/22 06:33:39;;;;;;;1.80;0.82;;;;;;;15.85;60.72;99450.30;1711344;82;25857;-58
2021/05/22 06:36:06;;;;;;;3.08;1.35;;;;;;;15.88;60.62;99455.59;1714181;82;26410;-58
2021/05/22 06:38:33;;;;;;;3.25;1.00;;;;;;;15.92;60.70;99462.45;1693904;83;25771;-58
2021/05/22 06:40:59;;;;;;;1.62;0.98;;;;;;;15.97;60.39;99450.69;1718466;81;26158;-58
2021/05/22 06:43:26;;;;;;;1.55;1.00;;;;;;;16.14;60.50;99443.93;1712114;81;27416;-57
2021/05/22 06:46:01;;;;;;;2.60;1.37;;;;;;;16.21;59.94;99442.66;1714655;81;25859;-58
2021/05/22 06:48:27;;;;;;;1.00;0.85;;;;;;;16.30;59.77;99441.03;1705638;82;25740;-58
2021/05/22 06:50:55;;;;;;;1.50;1.00;;;;;;;16.49;59.62;99452.98;1711396;81;26401;-58
2021/05/22 06:53:22;;;;;;;1.27;1.00;;;;;;;16.85;59.12;99461.67;1713558;81;26087;-63
2021/05/22 06:55:49;;;;;;;1.82;0.70;;;;;;;16.85;59.12;99461.67;1693915;83;27397;-63
2021/05/22 06:58:17;;;;;;;2.58;0.82;;;;;;;17.05;59.06;99464.45;1699363;82;26038;-63
2021/05/22 07:00:44;;;;;;;1.25;0.90;;;;;;;17.13;57.92;99458.50;1695056;82;25894;-63
2021/05/22 07:03:10;;;;;;;0.93;0.80;;;;;;;17.23;57.11;99460.56;1704667;82;27786;-63
2021/05/22 07:05:37;;;;;;;1.82;0.88;;;;;;;17.50;57.59;99463.16;1703478;83;25919;-62
2021/05/22 07:08:05;;;;;;;0.60;0.55;;;;;;;17.72;56.23;99451.27;1708259;82;27387;-62
2021/05/22 07:10:32;;;;;;;1.50;0.80;;;;;;;17.76;55.92;99445.83;1699226;82;26060;-63
2021/05/22 07:12:58;;;;;;;2.08;0.85;;;;;;;17.96;56.57;99453.82;1712806;81;25849;-63
2021/05/22 07:15:25;;;;;;;3.60;0.85;;;;;;;18.27;55.44;99455.23;1701783;82;25785;-63
2021/05/22 07:17:53;;;;;;;1.40;0.80;;;;;;;18.19;54.59;99461.81;1713678;82;25695;-63
2021/05/22 07:20:21;;;;;;;4.75;1.20;;;;;;;18.07;54.76;99460.17;1696989;82;29551;-63
2021/05/22 07:22:50;;;;;;;2.27;0.80;;;;;;;18.13;54.83;99459.22;1689977;83;25785;-63
2021/05/22 07:25:19;;;;;;;1.47;0.80;;;;;;;18.11;54.71;99439.85;1717327;82;25708;-63
2021/05/22 07:27:48;;;;;;;7.67;1.07;;;;;;;18.25;54.60;99454.23;1716006;82;25725;-60
2021/05/22 07:30:16;;;;;;;10.45;0.82;;;;;;;18.36;54.88;99447.45;1713695;81;25719;-65
2021/05/22 07:32:43;;;;;;;0.70;0.70;;;;;;;18.44;54.58;99449.07;1715905;82;27434;-63
2021/05/22 07:35:12;;;;;;;0.98;0.75;;;;;;;18.27;53.09;99468.33;1724808;81;25776;-63
2021/05/22 07:37:40;;;;;;;2.25;0.82;;;;;;;18.11;53.90;99465.84;1722732;81;25774;-63
2021/05/22 07:40:10;;;;;;;1.42;1.20;;;;;;;17.93;53.91;99451.27;1714635;81;26241;-64
2021/05/22 07:42:37;;;;;;;1.25;1.00;;;;;;;17.80;53.57;99454.84;1709605;82;25768;-66
2021/05/22 07:45:06;;;;;;;2.33;1.52;;;;;;;17.61;54.20;99448.23;1709037;82;27318;-68
2021/05/22 07:47:32;;;;;;;1.17;0.80;;;;;;;17.53;54.57;99448.16;1720593;81;25791;-63
2021/05/22 07:49:59;;;;;;;1.12;0.80;;;;;;;17.43;54.84;99456.26;1719829;82;25879;-67
2021/05/22 07:52:27;;;;;;;1.37;0.95;;;;;;;17.38;54.88;99457.97;1720048;81;25729;-67
2021/05/22 07:54:53;;;;;;;0.60;0.60;;;;;;;17.32;55.27;99439.17;1703089;82;25765;-68
2021/05/22 07:57:19;;;;;;;1.67;0.62;;;;;;;17.29;55.04;99420.78;1711210;82;27393;-67
2021/05/22 07:59:47;;;;;;;0.80;0.60;;;;;;;17.32;55.54;99424.14;1709779;81;25782;-67
2021/05/22 08:02:16;;;;;;;1.87;0.90;;;;;;;17.45;55.54;99426.59;1691706;81;25707;-67
2021/05/22 08:04:45;;;;;;;0.88;0.78;;;;;;;17.57;56.26;99415.40;1716343;82;25863;-67
2021/05/22 08:07:11;;;;;;;4.70;0.83;;;;;;;17.75;55.83;99418.27;1696019;82;25747;-67
2021/05/22 08:09:38;;;;;;;0.57;0.57;;;;;;;17.81;55.63;99437.84;1697255;81;29606;-67
2021/05/22 08:12:07;;;;;;;1.15;0.70;;;;;;;17.81;54.75;99441.38;1707010;81;25820;-68
2021/05/22 08:14:33;;;;;;;0.95;0.53;;;;;;;17.78;54.16;99441.36;1646568;85;25742;-66
2021/05/22 08:17:00;;;;;;;1.90;1.20;;;;;;;17.81;53.91;99427.70;1666506;83;25835;-67
2021/05/22 08:19:27;;;;;;;0.62;0.60;;;;;;;17.92;54.08;99445.59;1692067;83;26571;-68
2021/05/22 08:21:56;;;;;;;3.75;1.00;;;;;;;17.95;53.80;99440.73;1661928;83;26990;-68
2021/05/22 08:24:23;;;;;;;1.15;0.80;;;;;;;18.09;53.61;99446.89;1667510;83;25765;-67
2021/05/22 08:26:50;;;;;;;3.70;1.00;;;;;;;18.03;53.52;99451.13;1658646;83;25756;-67
2021/05/22 08:29:16;;;;;;;2.50;1.30;;;;;;;17.91;53.35;99445.37;1705727;82;25912;-67
2021/05/22 08:31:43;;;;;;;2.62;0.90;;;;;;;17.87;53.63;99447.31;1715504;81;25732;-66
2021/05/22 08:34:09;;;;;;;1.27;0.88;;;;;;;17.85;53.71;99446.88;1700831;82;27733;-67
2021/05/22 08:36:37;;;;;;;1.45;0.88;;;;;;;17.74;53.42;99449.50;1706280;82;25622;-67
2021/05/22 08:39:07;;;;;;;4.42;0.75;;;;;;;17.56;52.88;99441.16;1720442;81;26382;-67
2021/05/22 08:41:36;;;;;;;2.30;0.72;;;;;;;17.44;53.56;99444.95;1705084;81;26344;-64
2021/05/22 08:44:04;;;;;;;1.65;1.10;;;;;;;17.30;54.55;99440.72;1698475;82;32576;-63
2021/05/22 08:46:32;;;;;;;1.15;0.95;;;;;;;17.30;55.23;99447.55;1704813;82;27316;-64
2021/05/22 08:48:59;;;;;;;1.45;0.88;;;;;;;17.26;55.94;99452.18;1698813;81;25689;-63
2021/05/22 08:51:27;;;;;;;1.22;1.05;;;;;;;17.21;55.99;99442.95;1711645;82;26566;-62
2021/05/22 08:53:53;;;;;;;1.35;1.00;;;;;;;17.22;56.64;99443.95;1701479;81;26323;-63
2021/05/22 08:56:20;;;;;;;3.22;1.00;;;;;;;17.13;56.91;99446.20;1717942;82;25758;-63
2021/05/22 08:58:47;;;;;;;1.62;0.90;;;;;;;17.04;57.52;99452.52;1688630;82;28160;-62
2021/05/22 09:01:14;;;;;;;2.05;1.67;;;;;;;16.90;58.29;99447.69;1702507;82;25872;-63
2021/05/22 09:03:45;;;;;;;1.25;1.02;;;;;;;16.72;58.62;99456.42;1714615;81;25785;-63
2021/05/22 09:06:12;;;;;;;3.70;1.17;;;;;;;16.52;59.50;99448.94;1670886;82;26267;-63
2021/05/22 09:08:39;;;;;;;3.17;1.90;;;;;;;16.37;59.99;99453.41;1701651;82;25842;-62
2021/05/22 09:11:07;;;;;;;4.47;1.12;;;;;;;16.21;60.44;99458.25;1719036;82;27868;-62
2021/05/22 09:13:36;;;;;;;1.12;1.02;;;;;;;16.14;61.34;99463.02;1712314;82;26324;-65
2021/05/22 09:16:09;;;;;;;1.62;1.22;;;;;;;16.08;61.61;99465.84;1711140;82;26681;-62
2021/05/22 09:18:39;;;;;;;1.92;1.40;;;;;;;16.00;62.37;99458.11;1709639;81;25698;-62
2021/05/22 09:21:09;;;;;;;4.83;1.72;;;;;;;15.94;62.81;99453.36;1716025;82;25678;-62
2021/05/22 09:23:40;;;;;;;3.45;1.40;;;;;;;15.93;63.52;99453.13;1723720;81;27382;-62
2021/05/22 09:26:12;;;;;;;2.47;1.17;;;;;;;15.87;63.93;99446.63;1711867;82;27217;-63
2021/05/22 09:28:49;;;;;;;3.08;1.45;;;;;;;15.84;64.45;99448.71;1708429;82;25875;-64
2021/05/22 09:31:24;;;;;;;1.70;1.15;;;;;;;15.74;64.70;99443.84;1703184;82;27427;-64
2021/05/22 09:33:59;;;;;;;1.40;1.27;;;;;;;15.65;65.29;99436.50;1719155;81;25777;-65
2021/05/22 09:36:28;;;;;;;2.75;1.95;;;;;;;15.54;65.42;99439.61;1715985;81;27322;-65
2021/05/22 09:38:56;;;;;;;1.90;1.30;;;;;;;15.39;65.28;99446.73;1716898;81;25777;-65
2021/05/22 09:41:30;;;;;;;2.35;1.50;;;;;;;15.27;65.63;99450.41;1717242;81;25691;-64
2021/05/22 09:44:15;;;;;;;3.10;1.70;;;;;;;15.17;66.42;99450.44;1697366;83;25781;-64
2021/05/22 09:46:50;;;;;;;1.87;1.77;;;;;;;15.10;66.85;99460.63;1696462;83;25886;-64
2021/05/22 09:49:24;;;;;;;1.87;1.42;;;;;;;14.99;66.41;99454.75;1700752;82;27350;-65
2021/05/22 09:52:10;;;;;;;4.42;2.87;;;;;;;14.87;66.69;99449.66;1713235;81;25851;-60
2021/05/22 09:54:53;;;;;;;2.75;1.42;;;;;;;14.74;67.08;99455.02;1684653;83;25738;-61
2021/05/22 09:57:39;;;;;;;2.62;2.40;;;;;;;14.62;67.92;99450.49;1665187;84;25694;-61
2021/05/22 10:00:19;;;;;;;1.90;1.30;;;;;;;14.54;68.33;99451.45;1657369;85;25922;-61
2021/05/22 10:02:56;;;;;;;2.80;1.92;;;;;;;14.47;68.47;99452.66;1654771;85;27952;-62
2021/05/22 10:05:29;;;;;;;6.10;2.33;;;;;;;14.41;68.88;99449.44;1648346;84;25896;-62
2021/05/22 10:07:57;;;;;;;3.75;2.15;;;;;;;14.33;68.87;99449.84;1716801;82;25830;-62
2021/05/22 10:10:44;;;;;;;3.80;1.50;;;;;;;14.27;69.45;99450.46;1712754;82;25893;-62
2021/05/22 10:13:11;;;;;;;2.60;1.60;;;;;;;14.21;69.88;99447.23;1718256;82;25924;-61
2021/05/22 10:15:38;;;;;;;3.20;1.45;;;;;;;14.12;70.06;99446.66;1711171;82;28000;-61
2021/05/22 10:18:06;;;;;;;2.00;1.80;;;;;;;14.04;70.31;99447.04;1711168;82;27329;-62
2021/05/22 10:20:32;;;;;;;3.85;3.33;;;;;;;14.01;70.68;99448.55;1704384;82;25945;-62
2021/05/22 10:23:01;;;;;;;4.05;2.00;;;;;;;13.95;70.55;99440.43;1706991;81;26209;-62
2021/05/22 10:25:28;;;;;;;5.47;1.72;;;;;;;13.85;71.12;99437.47;1701610;81;25713;-62
2021/05/22 10:27:54;;;;;;;2.67;2.40;;;;;;;13.79;71.50;99440.45;1710277;82;27293;-62
2021/05/22 10:30:22;;;;;;;1.95;1.57;;;;;;;13.77;71.78;99441.92;1706215;82;25855;-62
2021/05/22 10:32:49;;;;;;;3.02;1.52;;;;;;;13.74;72.02;99439.91;1675980;83;25782;-62
2021/05/22 10:35:24;;;;;;;2.75;1.90;;;;;;;13.68;71.88;99435.89;1676797;83;25850;-62
2021/05/22 10:37:52;;;;;;;9.93;4.85;;;;;;;13.66;72.39;99437.59;1683655;83;25883;-62
2021/05/22 10:40:32;;;;;;;2.75;2.02;;;;;;;13.69;73.05;99434.73;1677796;84;27376;-62
2021/05/22 10:43:00;;;;;;;5.92;2.02;;;;;;;13.73;73.18;99432.91;1683561;83;27218;-63
2021/05/22 10:45:37;;;;;;;7.03;2.42;;;;;;;13.72;73.49;99427.24;1686425;82;25845;-61
2021/05/22 10:48:09;;;;;;;2.85;1.98;;;;;;;13.76;73.61;99426.20;1687248;82;25745;-61
2021/05/22 10:50:46;;;;;;;2.58;2.17;;;;;;;13.83;73.96;99426.36;1716535;82;26671;-62
2021/05/22 10:53:34;;;;;;;3.12;1.75;;;;;;;13.89;73.98;99424.73;1717874;81;27446;-60
2021/05/22 10:56:16;;;;;;;4.03;2.30;;;;;;;13.92;73.92;99418.60;1716880;82;25876;-60
2021/05/22 10:59:09;;;;;;;4.87;2.40;;;;;;;13.90;73.87;99422.25;1706607;82;25754;-62
2021/05/22 11:01:36;;;;;;;4.75;2.85;;;;;;;13.92;74.13;99418.60;1709682;81;26107;-62
2021/05/22 11:04:13;;;;;;;6.05;2.90;;;;;;;13.94;74.48;99421.75;1708047;82;25900;-63
2021/05/22 11:06:55;;;;;;;7.05;2.70;;;;;;;13.91;74.03;99417.02;1709433;82;27332;-64
2021/05/22 11:09:37;;;;;;;4.92;2.67;;;;;;;13.90;74.28;99412.73;1702109;82;25860;-63
2021/05/22 11:12:29;;;;;;;5.17;4.22;;;;;;;13.90;74.43;99408.08;1720794;82;25670;-63
2021/05/22 11:14:53;;;;;;;7.85;2.72;;;;;;;13.89;74.58;99403.77;1710919;81;26072;-63
2021/05/22 11:17:26;;;;;;;5.17;2.45;;;;;;;13.91;74.90;99401.52;1714403;81;25902;-64
2021/05/22 11:20:05;;;;;;;5.53;2.87;;;;;;;13.97;75.26;99395.22;1724507;81;27263;-64
2021/05/22 11:22:46;;;;;;;4.43;2.77;;;;;;;14.04;75.27;99394.02;1725246;81;25786;-64
2021/05/22 11:25:16;;;;;;;4.67;2.90;;;;;;;14.08;75.19;99383.22;1712394;82;25896;-65
2021/05/22 11:27:56;;;;;;;4.53;2.75;;;;;;;14.08;74.81;99375.87;1717962;81;25854;-67
2021/05/22 11:30:36;;;;;;;4.12;2.98;;;;;;;14.10;75.00;99372.80;1720362;82;25804;-64
2021/05/22 11:33:09;;;;;;;6.10;3.30;;;;;;;14.17;75.36;99369.66;1708217;82;29575;-67
2021/05/22 11:35:40;;;;;;;4.03;2.65;;;;;;;14.22;75.58;99361.80;1716003;81;26132;-67
2021/05/22 11:38:26;;;;;;;4.80;2.70;;;;;;;14.31;75.54;99356.92;1719850;81;26158;-62
2021/05/22 11:40:52;;;;;;;4.80;2.55;;;;;;;14.42;76.16;99354.45;1711761;82;26414;-62
2021/05/22 11:43:25;;;;;;;4.60;3.30;;;;;;;14.51;76.11;99359.09;1706622;82;26586;-62
2021/05/22 11:46:02;;;;;;;4.60;2.25;;;;;;;14.59;76.30;99353.81;1713446;81;27375;-61
2021/05/22 11:48:40;;;;;;;3.98;2.77;;;;;;;14.69;76.23;99349.16;1705384;81;25716;-62
2021/05/22 11:51:24;;;;;;;4.08;2.30;;;;;;;14.73;75.49;99351.39;1701409;82;25775;-61
2021/05/22 11:54:04;;;;;;;2.75;2.15;;;;;;;14.75;75.15;99348.50;1705207;81;26132;-72
2021/05/22 11:56:36;;;;;;;3.05;2.12;;;;;;;14.71;74.30;99345.49;1704140;82;25822;-61
2021/05/22 11:59:06;;;;;;;4.00;1.98;;;;;;;14.65;74.24;99342.28;1704867;82;27307;-60
2021/05/22 12:01:38;;;;;;;4.37;2.70;;;;;;;14.62;73.90;99344.36;1714607;81;33652;-66
2021/05/22 12:04:10;;;;;;;3.15;2.12;;;;;;;14.55;74.11;99343.61;1715336;81;25739;-59
2021/05/22 12:06:56;;;;;;;3.70;2.17;;;;;;;14.49;73.99;99351.05;1712410;82;26636;-67
2021/05/22 12:09:23;;;;;;;4.08;2.47;;;;;;;14.40;73.99;99340.39;1675564;82;25758;-68
2021/05/22 12:12:00;;;;;;;3.20;2.10;;;;;;;14.34;74.17;99343.98;1712221;82;27513;-61
2021/05/22 12:14:47;;;;;;;5.67;2.62;;;;;;;14.29;74.36;99345.63;1706114;82;26583;-61
2021/05/22 12:17:17;;;;;;;4.03;2.27;;;;;;;14.26;74.75;99348.27;1703949;82;25803;-68
2021/05/22 12:19:54;;;;;;;3.98;2.42;;;;;;;14.20;74.70;99351.27;1716473;82;25942;-61
2021/05/22 12:22:31;;;;;;;3.52;1.80;;;;;;;14.12;74.98;99353.61;1717257;81;25898;-61
2021/05/22 12:24:58;;;;;;;4.08;2.00;;;;;;;14.00;74.83;99361.90;1691355;82;27318;-60
2021/05/22 12:27:28;;;;;;;3.10;2.17;;;;;;;13.78;74.03;99371.49;1701961;82;26079;-60
2021/05/22 12:29:55;;;;;;;5.12;2.45;;;;;;;13.60;74.19;99367.79;1705359;82;26325;-64
2021/05/22 12:32:22;;;;;;;3.60;1.70;;;;;;;13.48;74.52;99369.80;1709418;82;25813;-72
2021/05/22 12:35:07;;;;;;;3.03;2.00;;;;;;;13.40;75.23;99364.74;1701190;82;25980;-60
2021/05/22 12:37:36;;;;;;;4.42;2.27;;;;;;;13.34;75.13;99374.31;1714286;81;27287;-70
2021/05/22 12:40:10;;;;;;;5.25;2.87;;;;;;;13.22;75.29;99373.20;1722591;81;25790;-71
2021/05/22 12:42:39;;;;;;;5.95;3.85;;;;;;;13.21;76.12;99369.48;1704689;81;25988;-70
2021/05/22 12:45:13;;;;;;;3.98;2.47;;;;;;;13.21;76.22;99373.01;1704500;82;26017;-69
2021/05/22 12:47:47;;;;;;;3.42;2.20;;;;;;;13.19;76.10;99379.91;1701621;82;25738;-72
2021/05/22 12:50:19;;;;;;;4.45;2.08;;;;;;;13.15;75.92;99389.90;1716058;82;29583;-59
2021/05/22 12:52:54;;;;;;;2.92;1.85;;;;;;;13.06;75.85;99384.63;1710654;82;26117;-59
2021/05/22 12:55:31;;;;;;;4.87;2.45;;;;;;;12.94;75.66;99383.31;1704632;81;25757;-59
2021/05/22 12:58:02;;;;;;;5.53;2.65;;;;;;;12.85;75.99;99382.89;1712475;82;25967;-59
2021/05/22 13:00:31;;;;;;;4.85;2.30;;;;;;;12.74;76.58;99381.83;1684066;82;25741;-59
2021/05/22 13:03:00;;;;;;;4.87;2.97;;;;;;;12.69;76.51;99383.44;1717358;81;27398;-72
2021/05/22 13:05:34;;;;;;;5.50;2.58;;;;;;;12.65;77.45;99383.88;1711113;81;26213;-59
2021/05/22 13:08:04;;;;;;;4.25;2.20;;;;;;;12.55;77.22;99385.73;1714665;82;26719;-58
2021/05/22 13:10:38;;;;;;;8.53;2.98;;;;;;;12.44;76.92;99382.72;1714801;81;25785;-58
2021/05/22 13:13:20;;;;;;;5.87;2.40;;;;;;;12.38;77.59;99384.08;1698328;82;25956;-58
2021/05/22 13:15:55;;;;;;;5.17;2.60;;;;;;;12.31;77.92;99373.27;1717410;81;27600;-59
2021/05/22 13:18:30;;;;;;;6.15;2.58;;;;;;;12.28;78.16;99370.45;1710506;82;25755;-58
2021/05/22 13:21:01;;;;;;;3.10;2.70;;;;;;;12.26;78.81;99361.84;1715811;82;25905;-58
2021/05/22 13:23:44;;;;;;;6.25;2.37;;;;;;;12.24;78.70;99363.58;1715613;82;26894;-58
2021/05/22 13:26:29;;;;;;;5.92;3.00;;;;;;;12.25;79.12;99358.93;1714891;81;25714;-59
2021/05/22 13:28:58;;;;;;;4.95;2.60;;;;;;;12.29;79.71;99357.09;1716989;81;27447;-59
2021/05/22 13:31:31;;;;;;;7.87;3.83;;;;;;;12.30;79.48;99351.34;1720548;81;26247;-59
2021/05/22 13:34:07;;;;;;;3.42;2.45;;;;;;;12.30;79.58;99349.20;1730838;81;25736;-59
2021/05/22 13:36:35;;;;;;;4.12;2.70;;;;;;;12.28;79.59;99350.90;1719586;81;26590;-58
2021/05/22 13:39:09;;;;;;;3.52;2.47;;;;;;;12.22;79.49;99346.83;1694319;82;26201;-58
2021/05/22 13:41:46;;;;;;;5.42;3.12;;;;;;;12.25;79.74;99342.66;1713968;81;29576;-58
2021/05/22 13:44:15;;;;;;;3.05;2.75;;;;;;;12.27;80.16;99347.17;1710247;82;26447;-58
2021/05/22 13:46:45;;;;;;;5.65;3.17;;;;;;;12.26;80.24;99342.32;1715523;81;25855;-58
2021/05/22 13:49:11;;;;;;;7.20;3.40;;;;;;;12.28;80.42;99340.05;1711904;82;25739;-57
2021/05/22 13:51:42;;;;;;;4.08;3.08;;;;;;;12.31;80.29;99339.95;1713768;81;26297;-57
2021/05/22 13:54:08;;;;;;;5.35;3.25;;;;;;;12.32;80.69;99335.51;1728106;81;27339;-57
2021/05/22 13:56:36;;;;;;;6.37;3.20;;;;;;;12.35;80.74;99333.27;1719747;81;25711;-60
2021/05/22 13:59:03;;;;;;;6.20;3.17;;;;;;;12.38;81.15;99325.77;1718798;82;25779;-57
2021/05/22 14:01:30;;;;;;;6.08;3.15;;;;;;;12.38;80.70;99324.42;1724338;81;26174;-59
2021/05/22 14:04:00;;;;;;;4.12;3.52;;;;;;;12.41;80.86;99328.61;1719595;81;25821;-58
2021/05/22 14:06:28;;;;;;;6.75;4.05;;;;;;;12.45;81.11;99324.64;1709584;82;27394;-58
2021/05/22 14:08:55;;;;;;;6.03;3.95;;;;;;;12.51;81.39;99331.37;1724201;81;25756;-58
2021/05/22 14:11:22;;;;;;;10.05;5.00;;;;;;;12.54;81.42;99323.14;1712454;81;25858;-58
2021/05/22 14:13:49;;;;;;;6.33;3.55;;;;;;;12.59;81.55;99322.89;1704334;82;26266;-58
2021/05/22 14:16:17;;;;;;;6.10;4.22;;;;;;;12.64;81.72;99313.92;1709467;81;26573;-58
2021/05/22 14:18:43;;;;;;;10.50;7.97;;;;;;;12.73;82.12;99323.27;1703022;82;27336;-60
2021/05/22 14:21:10;;;;;;;4.95;4.40;;;;;;;12.81;82.31;99319.61;1708622;81;26364;-59
2021/05/22 14:23:37;;;;;;;6.12;3.65;;;;;;;12.91;82.45;99322.97;1709129;82;25746;-59
2021/05/22 14:26:03;;;;;;;7.15;4.75;;;;;;;12.97;82.46;99311.48;1715914;81;25986;-59
2021/05/22 14:28:30;;;;;;;5.50;3.92;;;;;;;13.06;82.67;99310.76;1711964;82;25744;-59
2021/05/22 14:30:57;;;;;;;5.45;4.42;;;;;;;13.14;82.03;99316.36;1717261;81;27456;-61
2021/05/22 14:33:24;;;;;;;5.72;4.12;;;;;;;13.17;81.95;99318.38;1707502;82;25702;-59
2021/05/22 14:35:51;;;;;;;14.83;4.60;;;;;;;13.19;81.68;99312.02;1717388;81;25876;-61
2021/05/22 14:38:18;;;;;;;5.85;4.65;;;;;;;13.20;81.43;99310.90;1708089;81;25871;-60
2021/05/22 14:40:44;;;;;;;4.90;4.42;;;;;;;13.21;81.50;99316.53;1712267;81;25801;-59
2021/05/22 14:43:11;;;;;;;6.60;5.00;;;;;;;13.20;81.54;99310.90;1669307;83;27393;-59
2021/05/22 14:45:38;;;;;;;4.50;3.83;;;;;;;13.14;80.81;99315.00;1648339;84;26030;-59
2021/05/22 14:48:11;;;;;;;4.85;4.15;;;;;;;13.11;81.16;99312.44;1644567;84;25788;-60
2021/05/22 14:50:40;;;;;;;6.17;4.55;;;;;;;13.15;81.65;99311.94;1659095;84;26440;-59
2021/05/22 14:53:09;;;;;;;5.15;4.10;;;;;;;13.21;81.84;99316.53;1657613;84;26010;-59
2021/05/22 14:55:37;;;;;;;4.70;4.20;;;;;;;13.22;81.67;99315.41;1673794;83;27374;-59
2021/05/22 14:58:05;;;;;;;9.08;4.92;;;;;;;13.24;81.84;99315.84;1700357;81;25925;-59
2021/05/22 15:00:32;;;;;;;7.47;5.03;;;;;;;13.25;81.59;99321.50;1687683;82;25984;-59
2021/05/22 15:03:01;;;;;;;6.12;4.42;;;;;;;13.24;81.53;99319.33;1700535;82;25882;-59
2021/05/22 15:05:28;;;;;;;8.53;4.10;;;;;;;13.23;81.66;99315.64;1706846;81;25870;-59
2021/05/22 15:07:54;;;;;;;6.28;5.28;;;;;;;13.25;81.80;99322.86;1705156;81;29502;-59
2021/05/22 15:10:22;;;;;;;6.47;4.12;;;;;;;13.23;81.69;99320.48;1701289;81;25861;-59
2021/05/22 15:12:50;;;;;;;6.53;4.47;;;;;;;13.19;81.55;99317.45;1674163;83;25780;-60
2021/05/22 15:15:20;;;;;;;5.12;4.22;;;;;;;13.15;81.94;99317.38;1653905;85;25945;-59
2021/05/22 15:17:49;;;;;;;6.78;3.98;;;;;;;13.09;81.55;99314.69;1651871;85;25722;-60
2021/05/22 15:20:16;;;;;;;4.83;4.20;;;;;;;13.03;81.79;99318.81;1651949;84;27329;-58
2021/05/22 15:22:44;;;;;;;5.87;4.22;;;;;;;12.99;81.52;99319.27;1657324;84;26283;-60
2021/05/22 15:25:12;;;;;;;5.50;4.10;;;;;;;13.01;82.24;99311.02;1659619;84;25777;-60
2021/05/22 15:27:41;;;;;;;8.90;5.10;;;;;;;13.05;82.24;99330.11;1698584;82;25852;-60
2021/05/22 15:30:11;;;;;;;6.92;4.70;;;;;;;13.08;82.40;99322.05;1700749;82;26298;-60
2021/05/22 15:32:39;;;;;;;6.05;4.40;;;;;;;13.13;82.49;99321.56;1679750;81;26977;-59
2021/05/22 15:35:07;;;;;;;7.67;4.10;;;;;;;13.16;82.16;99320.31;1714944;81;25763;-60
2021/05/22 15:37:34;;;;;;;6.62;3.85;;;;;;;13.18;82.05;99322.11;1719905;81;25873;-59
2021/05/22 15:40:01;;;;;;;5.55;3.90;;;;;;;13.16;81.91;99322.22;1724065;82;26388;-59
2021/05/22 15:42:28;;;;;;;11.60;5.12;;;;;;;13.08;81.33;99311.19;1713147;81;26186;-60
2021/05/22 15:44:57;;;;;;;5.75;4.65;;;;;;;13.07;81.54;99312.31;1692745;82;28061;-60
2021/05/22 16:00:24;;;;;;;6.50;3.17;;;;;;;13.10;81.38;99314.14;1722612;81;25931;-60
2021/05/22 16:03:07;;;;;;;6.72;3.70;;;;;;;13.06;81.41;99325.69;1715366;81;25634;-60
2021/05/22 16:05:33;;;;;;;3.90;3.25;;;;;;;13.06;81.33;99331.70;1698224;82;26126;-66
2021/05/22 16:07:49;;;;;;;4.70;3.27;;;;;;;13.04;81.27;99326.61;1703871;81;25874;-66
2021/05/22 16:10:16;;;;;;;10.98;6.05;;;;;;;13.00;81.29;99327.07;1710207;82;27327;-66
2021/05/22 16:12:43;;;;;;;5.45;3.60;;;;;;;12.98;81.22;99333.42;1709105;81;25909;-66
2021/05/22 16:15:12;;;;;;;5.50;3.60;;;;;;;12.94;81.15;99333.91;1712279;81;25933;-66
2021/05/22 16:17:39;;;;;;;;;;;;;;;12.89;81.39;99336.88;1720083;81;26225;-66
2021/05/22 16:20:06;;;;;;;4.58;3.05;;;;;;;12.88;81.49;99345.56;1717877;81;25775;-68
2021/05/22 16:22:34;;;;;;;4.92;3.60;;;;;;;12.87;81.45;99344.55;1709360;81;27233;-67
2021/05/22 16:25:01;;;;;;;4.05;3.35;;;;;;;12.85;81.42;99340.05;1717239;81;25717;-63
2021/05/22 16:27:27;;;;;;;5.40;3.35;;;;;;;12.83;81.34;99341.75;1722393;81;25765;-64
2021/05/22 16:29:54;;;;;;;6.25;3.12;;;;;;;12.81;81.16;99340.53;1711526;82;25814;-64
2021/05/22 16:32:23;;;;;;;3.33;2.70;;;;;;;12.79;81.01;99344.17;1713673;82;25867;-62
2021/05/22 16:34:50;;;;;;;4.15;3.58;;;;;;;12.76;80.97;99340.78;1716234;81;28064;-67
2021/05/22 16:37:17;;;;;;;3.90;2.67;;;;;;;12.72;81.06;99371.89;1654356;83;25763;-65
2021/05/22 16:39:43;;;;;;;3.22;2.08;;;;;;;12.66;80.86;99379.47;1651102;84;25929;-64
2021/05/22 16:42:10;;;;;;;2.45;1.20;;;;;;;12.55;79.43;99387.08;1708077;82;25804;-63
2021/05/22 16:44:37;;;;;;;3.75;2.08;;;;;;;12.37;77.94;99387.36;1707309;82;26387;-64
2021/05/22 16:47:03;;;;;;;4.15;1.82;;;;;;;12.19;77.82;99390.11;1719597;81;27323;-65
2021/05/22 16:49:35;;;;;;;1.82;1.37;;;;;;;12.01;77.40;99385.52;1722002;81;26816;-63
2021/05/22 16:51:58;;;;;;;1.45;1.30;;;;;;;11.83;77.08;99384.34;1721379;81;26410;-66
2021/05/22 16:54:25;;;;;;;2.83;1.95;;;;;;;11.64;76.55;99375.44;1718151;82;25933;-65
2021/05/22 16:56:51;;;;;;;6.00;2.22;;;;;;;11.43;76.67;99364.71;1721717;81;25836;-65
2021/05/22 16:59:21;;;;;;;6.92;1.95;;;;;;;11.31;76.90;99361.42;1715626;81;27352;-66
2021/05/22 17:01:46;;;;;;;7.35;5.45;;;;;;;11.20;77.26;99365.14;1722293;81;25755;-65
2021/05/22 17:04:12;;;;;;;4.50;1.92;;;;;;;11.06;76.98;99357.09;1695114;82;26774;-66
2021/05/22 17:06:39;;;;;;;2.92;1.85;;;;;;;10.97;77.54;99362.59;1725676;81;26133;-67
2021/05/22 17:09:05;;;;;;;3.12;1.62;;;;;;;10.93;77.87;99372.48;1714283;81;25838;-65
2021/05/22 17:11:32;;;;;;;4.72;2.12;;;;;;;10.85;77.89;99366.05;1713588;81;27388;-65
2021/05/22 17:13:59;;;;;;;4.33;2.85;;;;;;;10.80;78.35;99375.16;1712142;82;26018;-66
2021/05/22 17:16:28;;;;;;;2.35;1.75;;;;;;;10.79;78.60;99377.62;1707503;82;26100;-66
2021/05/22 17:18:54;;;;;;;4.28;2.10;;;;;;;10.78;79.00;99383.39;1698521;82;27452;-65
2021/05/22 17:21:21;;;;;;;1.90;1.47;;;;;;;10.76;78.77;99392.38;1709668;82;25803;-64
2021/05/22 17:23:50;;;;;;;5.70;2.15;;;;;;;10.76;79.14;99400.48;1719287;82;27343;-66
2021/05/22 17:26:17;;;;;;;2.72;1.95;;;;;;;10.73;78.85;99401.17;1709187;81;25797;-66
2021/05/22 17:28:45;;;;;;;2.65;2.35;;;;;;;10.64;78.49;99407.98;1714636;81;26380;-64
2021/05/22 17:31:13;;;;;;;5.80;1.85;;;;;;;10.56;78.51;99400.19;1723189;81;25791;-64
2021/05/22 17:33:40;;;;;;;5.50;3.98;;;;;;;10.50;78.79;99406.90;1727435;81;25721;-65
2021/05/22 17:36:08;;;;;;;3.90;2.10;;;;;;;10.44;78.69;99406.88;1712840;81;27315;-64
2021/05/22 17:38:35;;;;;;;3.10;2.17;;;;;;;10.37;78.82;99410.65;1685649;83;25844;-66
2021/05/22 17:41:02;;;;;;;2.90;1.90;;;;;;;10.30;78.91;99405.77;1705363;82;26061;-65
2021/05/22 17:43:28;;;;;;;4.47;2.65;;;;;;;10.28;79.15;99406.63;1701323;82;26247;-65
2021/05/22 17:45:55;;;;;;;5.50;4.62;;;;;;;10.28;79.37;99406.09;1709315;81;25658;-69
2021/05/22 17:48:42;;;;;;;3.50;3.10;;;;;;;10.28;79.46;99406.63;1692338;82;27450;-59
2021/05/22 17:51:16;;;;;;;4.53;2.30;;;;;;;10.27;79.66;99404.49;1709970;82;25788;-63
2021/05/22 17:53:46;;;;;;;3.80;3.35;;;;;;;10.32;79.95;99408.14;1702551;82;25693;-60
2021/05/22 17:56:12;;;;;;;4.93;2.60;;;;;;;10.31;79.92;99402.48;1702184;82;26028;-58
2021/05/22 17:58:39;;;;;;;3.90;2.30;;;;;;;10.30;79.97;99409.81;1710266;81;25837;-62
2021/05/22 18:01:07;;;;;;;3.85;2.22;;;;;;;10.27;79.94;99411.81;1703882;82;27310;-58